Opa Locka, FL

3:17 PM EDT on August 04, 2015 (GMT -0400)
Opa Locka | | Change Station
CLOSE
Current Station
Airport
Location: Opa Locka,
Elevation: 10 ft
Nearby Weather Stations

Elev 10 ft 25.91 °N, 80.28 °W | Updated 24 minutes ago

Overcast
Overcast
88 °F
Feels Like 96 °F
N
9
Wind Variable Wind from NNW

Today
High -- | Low -- °F
--% Chance of Precip.
Yesterday
High -- | Low -- °F
Precip. -- in
6:48 AM 8:05 PM
Waning Gibbous, 75% visible
Pressure 30.06 in
Visibility 10.0 miles
Clouds Mostly Cloudy 3900 ft
Mostly Cloudy 5000 ft
Heat Index 96 °F
Dew Point 73 °F
Humidity 61%
Rainfall 0.00 in
Snow Depth Not available.
UV 7 out of 12
Pollen 3.00 out of 12
Air Quality Not available.
Flu Activity Not available.
METAR KOPF 041853Z 33008KT 10SM BKN039 BKN050 31/23 A3005 RMK AO2 LTG DSNT SW AND W SLP178 T03110228

More Conditions Fewer Conditions

Pressure 30.06 in
Visibility 10.0 miles
Clouds Mostly Cloudy 3900 ft
Mostly Cloudy 5000 ft
Heat Index 96 °F
Dew Point 73 °F
Humidity 61%
Rainfall 0.00 in
Snow Depth Not available.
UV 7 out of 12
Pollen 3.00 out of 12
Air Quality Not available.
Flu Activity Not available.
METAR KOPF 041853Z 33008KT 10SM BKN039 BKN050 31/23 A3005 RMK AO2 LTG DSNT SW AND W SLP178 T03110228

More Conditions Fewer Conditions

Nowcast | as of 2:27 PM EDT on August 4, 2015

Showers and isolated thunderstorms will affect the southern half of South Florida...mainly across the interior regions and inland Collier County. These showers will produce brief heavy downpours...gusty winds to near 25 mph and occasional lightning strikes with the heaviest showers.

×

10-Day Weather Forecast

×

Almanac

Astronomy

Aug. 04, 2015 Rise Set
Actual Time
Civil Twilight
Nautical Twilight
Astronomical Twilight
Moon
Length of Visible Light
Length of Day
Tomorrow will be .
, % of the Moon is Illuminated

Today's Extremes

State Highs State Lows

Community

WunderPhotos

Upload Photos

1,843,954 photos uploaded!

WunderBlogs® & News

Nearby

Air Quality

  Air Quality AQ Index Pollutant
Not available.

Snow Depth

Station Depth Elevation

Earthquake Activity

City Distance Mag. Time & Date
Minimum magnitude displayed is 2.5.

Coastal Water Temperatures

Place Temperature

Stations

Nearby Weather Stations

Station Location Temp. Windchill Dew Point Humidity Wind Precip. Elev Updated Type